createdAt,value
2019-04-21T00:01:49.016Z,8.53
2019-04-21T00:04:24.842Z,7.80
2019-04-21T00:07:10.357Z,7.70
2019-04-21T00:09:40.115Z,8.43
2019-04-21T00:12:12.433Z,9.43
2019-04-21T00:14:35.859Z,7.73
2019-04-21T00:17:01.246Z,10.27
2019-04-21T00:19:44.251Z,8.40
2019-04-21T00:22:26.993Z,8.73
2019-04-21T00:25:01.061Z,8.97
2019-04-21T00:27:36.761Z,8.23
2019-04-21T00:30:10.899Z,7.47
2019-04-21T00:32:31.761Z,7.13
2019-04-21T00:35:02.551Z,8.57
2019-04-21T00:37:45.404Z,8.70
2019-04-21T00:40:16.616Z,7.47
2019-04-21T00:42:43.375Z,7.43
2019-04-21T00:45:15.307Z,8.37
2019-04-21T00:47:53.134Z,7.60
2019-04-21T00:50:30.183Z,7.07
2019-04-21T00:53:05.603Z,8.23
2019-04-21T00:56:03.434Z,10.20
2019-04-21T00:58:27.083Z,7.60
2019-04-21T01:00:51.178Z,7.00
2019-04-21T01:03:20.142Z,7.50
2019-04-21T01:08:25.270Z,6.67
2019-04-21T01:10:49.252Z,6.33
2019-04-21T01:13:47.064Z,7.03
2019-04-21T01:16:00.830Z,7.30
2019-04-21T01:18:32.637Z,5.80
2019-04-21T01:20:42.146Z,7.70
2019-04-21T01:23:12.709Z,7.70
2019-04-21T01:25:59.643Z,7.43
2019-04-21T01:28:37.646Z,6.37
2019-04-21T01:31:10.908Z,7.20
2019-04-21T01:33:44.955Z,6.80
2019-04-21T01:36:08.510Z,6.00
2019-04-21T01:38:48.655Z,6.00
2019-04-21T01:41:22.802Z,7.73
2019-04-21T01:43:47.738Z,5.57
2019-04-21T01:46:15.264Z,6.63
2019-04-21T01:48:45.960Z,6.33
2019-04-21T01:51:23.545Z,6.87
2019-04-21T01:54:09.294Z,6.13
2019-04-21T01:56:51.339Z,6.83
2019-04-21T01:59:14.139Z,6.50
2019-04-21T02:01:52.501Z,6.93
2019-04-21T02:04:29.351Z,5.80
2019-04-21T02:07:06.506Z,7.97
2019-04-21T02:09:38.153Z,8.03
2019-04-21T02:12:10.570Z,6.77
2019-04-21T02:14:48.725Z,7.37
2019-04-21T02:17:14.492Z,5.13
2019-04-21T02:19:37.504Z,8.30
2019-04-21T02:22:11.490Z,6.83
2019-04-21T02:24:51.621Z,5.80
2019-04-21T02:27:19.090Z,6.93
2019-04-21T02:29:55.954Z,6.10
2019-04-21T02:32:35.697Z,5.97
2019-04-21T02:35:21.121Z,5.33
2019-04-21T02:37:47.216Z,5.97
2019-04-21T02:40:19.061Z,5.53
2019-04-21T02:42:46.611Z,7.57
2019-04-21T02:45:17.694Z,6.03
2019-04-21T02:50:28.213Z,6.23
2019-04-21T02:52:52.923Z,6.47
2019-04-21T02:55:22.340Z,7.37
2019-04-21T03:00:36.843Z,5.13
2019-04-21T03:03:13.269Z,5.40
2019-04-21T03:06:20.341Z,6.63
2019-04-21T03:11:29.046Z,6.20
2019-04-21T03:13:56.808Z,6.37
2019-04-21T03:24:00.635Z,6.00
2019-04-21T03:29:03.687Z,6.93
2019-04-21T03:32:05.738Z,5.00
2019-04-21T03:39:01.681Z,5.77
2019-04-21T03:46:55.652Z,5.83
2019-04-21T03:49:21.000Z,5.43
2019-04-21T03:51:45.918Z,4.93
2019-04-21T03:54:21.932Z,4.97
2019-04-21T03:59:16.118Z,4.87
2019-04-21T04:02:14.850Z,5.37
2019-04-21T04:05:34.635Z,5.87
2019-04-21T04:08:08.746Z,5.17
2019-04-21T04:10:42.625Z,5.13
2019-04-21T04:13:20.450Z,5.00
2019-04-21T04:18:21.064Z,4.80
2019-04-21T04:20:45.172Z,4.17
2019-04-21T04:23:20.656Z,5.20
2019-04-21T04:28:20.633Z,5.30
2019-04-21T04:33:34.663Z,4.87
2019-04-21T04:36:04.306Z,4.67
2019-04-21T04:38:32.652Z,4.57
2019-04-21T04:43:57.296Z,5.47
2019-04-21T04:46:22.329Z,5.33
2019-04-21T04:48:52.748Z,4.17
2019-04-21T04:51:36.461Z,4.27
2019-04-21T05:01:34.570Z,4.13
2019-04-21T05:04:06.356Z,3.90
2019-04-21T05:09:09.453Z,4.10
2019-04-21T05:11:46.680Z,4.60
2019-04-21T05:19:14.856Z,4.23
2019-04-21T05:24:01.242Z,3.57
2019-04-21T05:26:36.072Z,4.20
2019-04-21T05:28:59.961Z,6.00
2019-04-21T05:32:03.210Z,5.73
2019-04-21T05:34:31.632Z,4.40
2019-04-21T05:37:25.822Z,5.80
2019-04-21T05:39:57.842Z,4.53
2019-04-21T05:42:31.802Z,4.30
2019-04-21T05:45:12.711Z,4.03
2019-04-21T05:47:47.017Z,7.77
2019-04-21T05:50:20.490Z,4.07
2019-04-21T05:52:57.302Z,4.13
2019-04-21T05:55:33.473Z,5.10
2019-04-21T05:57:57.374Z,4.27
2019-04-21T06:00:53.970Z,3.90
2019-04-21T06:03:12.060Z,5.30
2019-04-21T06:05:47.843Z,5.00
2019-04-21T06:08:13.449Z,4.63
2019-04-21T06:10:48.839Z,4.70
2019-04-21T06:13:22.198Z,3.63
2019-04-21T06:16:03.915Z,4.03
2019-04-21T06:18:28.873Z,4.67
2019-04-21T06:20:54.600Z,5.23
2019-04-21T06:23:27.043Z,5.67
2019-04-21T06:28:28.746Z,4.90
2019-04-21T06:31:05.464Z,4.13
2019-04-21T06:33:35.628Z,8.17
2019-04-21T06:36:39.019Z,4.80
2019-04-21T06:41:32.667Z,6.00
2019-04-21T06:44:01.451Z,5.07
2019-04-21T06:46:34.938Z,9.60
2019-04-21T06:51:48.280Z,12.27
2019-04-21T06:54:11.412Z,11.80
2019-04-21T06:56:40.955Z,10.33
2019-04-21T06:59:24.949Z,11.67
2019-04-21T07:01:54.722Z,9.67
2019-04-21T07:04:20.858Z,12.47
2019-04-21T07:06:48.064Z,9.00
2019-04-21T07:09:23.788Z,8.40
2019-04-21T07:11:44.081Z,12.73
2019-04-21T07:19:30.366Z,10.33
2019-04-21T07:21:54.311Z,9.97
2019-04-21T07:24:31.882Z,9.80
2019-04-21T07:26:56.770Z,11.23
2019-04-21T07:29:34.599Z,10.47
2019-04-21T07:34:33.708Z,11.00
2019-04-21T07:37:05.987Z,10.77
2019-04-21T07:39:35.564Z,11.57
2019-04-21T07:42:04.528Z,10.13
2019-04-21T07:44:32.904Z,8.87
2019-04-21T07:47:11.796Z,10.57
2019-04-21T07:49:59.038Z,10.63
2019-04-21T07:52:44.691Z,12.17
2019-04-21T07:55:20.007Z,17.33
2019-04-21T07:57:39.470Z,11.70
2019-04-21T08:00:21.266Z,14.10
2019-04-21T08:03:00.463Z,12.97
2019-04-21T08:05:21.361Z,12.13
2019-04-21T08:07:54.221Z,15.03
2019-04-21T08:10:15.712Z,14.87
2019-04-21T08:12:52.660Z,17.03
2019-04-21T08:17:54.714Z,14.67
2019-04-21T08:20:26.617Z,12.53
2019-04-21T08:22:59.526Z,14.17
2019-04-21T08:25:34.894Z,16.57
2019-04-21T08:28:05.307Z,12.53
2019-04-21T08:30:39.349Z,12.20
2019-04-21T08:33:18.730Z,15.40
2019-04-21T08:38:13.834Z,11.67
2019-04-21T08:40:49.676Z,12.50
2019-04-21T08:43:20.576Z,15.80
2019-04-21T08:45:49.759Z,10.97
2019-04-21T08:48:19.401Z,15.07
2019-04-21T08:51:00.632Z,12.80
2019-04-21T08:53:27.368Z,9.50
2019-04-21T08:56:24.008Z,12.07
2019-04-21T08:59:21.863Z,11.50
2019-04-21T09:02:01.371Z,9.73
2019-04-21T09:04:28.551Z,10.37
2019-04-21T09:09:35.008Z,8.13
2019-04-21T09:12:04.418Z,9.43
2019-04-21T09:14:36.642Z,10.10
2019-04-21T09:17:03.324Z,10.83
2019-04-21T09:19:53.351Z,9.53
2019-04-21T09:22:12.893Z,9.50
2019-04-21T09:24:48.267Z,10.37
2019-04-21T09:27:15.388Z,9.23
2019-04-21T09:29:36.658Z,10.07
2019-04-21T09:32:01.500Z,10.57
2019-04-21T09:34:36.997Z,8.70
2019-04-21T09:37:19.012Z,7.60
2019-04-21T09:39:43.332Z,9.27
2019-04-21T09:42:06.853Z,10.27
2019-04-21T09:44:40.444Z,9.10
2019-04-21T09:47:09.192Z,7.80
2019-04-21T09:49:41.436Z,8.40
2019-04-21T09:52:19.215Z,8.93
2019-04-21T09:54:52.072Z,7.57
2019-04-21T09:57:26.357Z,8.20
2019-04-21T09:59:53.744Z,9.93
2019-04-21T10:02:29.535Z,10.47
2019-04-21T10:04:50.486Z,8.57
2019-04-21T10:07:26.364Z,10.00
2019-04-21T10:09:52.415Z,7.10
2019-04-21T10:12:23.498Z,9.37
2019-04-21T10:14:53.529Z,8.07
2019-04-21T10:17:30.653Z,7.03
2019-04-21T10:20:00.774Z,8.10
2019-04-21T10:22:31.064Z,8.20
2019-04-21T10:25:00.889Z,6.70
2019-04-21T10:27:31.509Z,8.60
2019-04-21T10:30:01.830Z,5.83
2019-04-21T10:32:34.396Z,7.33
2019-04-21T10:35:05.488Z,6.03
2019-04-21T10:37:48.327Z,9.50
2019-04-21T10:40:09.546Z,7.97
2019-04-21T10:42:40.417Z,7.37
2019-04-21T10:45:10.932Z,7.17
2019-04-21T10:47:41.070Z,5.93
2019-04-21T10:50:11.193Z,7.73
2019-04-21T10:53:18.837Z,5.83
2019-04-21T10:56:05.310Z,7.57
2019-04-21T10:58:24.540Z,9.07
2019-04-21T11:01:02.063Z,6.80
2019-04-21T11:03:42.753Z,7.43
2019-04-21T11:06:14.885Z,7.70
2019-04-21T11:08:48.880Z,8.20
2019-04-21T11:11:16.365Z,7.23
2019-04-21T11:13:46.513Z,6.67
2019-04-21T11:16:17.262Z,7.70
2019-04-21T11:18:48.295Z,10.60
2019-04-21T11:21:18.755Z,6.77
2019-04-21T11:23:50.034Z,9.47
2019-04-21T11:26:20.102Z,9.60
2019-04-21T11:28:50.586Z,12.67
2019-04-21T11:31:20.934Z,16.23
2019-04-21T11:33:51.187Z,10.87
2019-04-21T11:36:21.607Z,7.07
2019-04-21T11:39:19.959Z,10.50
2019-04-21T11:41:39.731Z,7.97
2019-04-21T11:44:09.902Z,12.40
2019-04-21T11:46:40.367Z,9.03
2019-04-21T11:49:10.483Z,8.63
2019-04-21T11:51:40.784Z,8.13
2019-04-21T11:54:12.934Z,11.03
2019-04-21T11:56:43.249Z,7.07
2019-04-21T11:59:13.228Z,9.90
2019-04-21T12:01:43.538Z,7.60
2019-04-21T12:04:13.871Z,9.03
2019-04-21T12:06:47.293Z,10.80
2019-04-21T12:09:16.797Z,10.60
2019-04-21T12:11:47.430Z,7.63
2019-04-21T12:14:18.320Z,15.37
2019-04-21T12:16:49.064Z,7.07
2019-04-21T12:19:18.925Z,9.83
2019-04-21T12:22:02.672Z,9.37
2019-04-21T12:24:21.786Z,7.90
2019-04-21T12:26:51.805Z,11.93
2019-04-21T12:29:22.786Z,9.70
2019-04-21T12:32:20.521Z,7.90
2019-04-21T12:34:51.827Z,7.13
2019-04-21T12:37:22.763Z,10.07
2019-04-21T12:39:54.736Z,11.07
2019-04-21T12:42:24.883Z,6.77
2019-04-21T12:44:55.176Z,6.40
2019-04-21T12:47:25.894Z,7.30
2019-04-21T12:49:56.976Z,7.17
2019-04-21T12:52:27.377Z,10.70
2019-04-21T12:54:57.664Z,7.50
2019-04-21T12:57:30.224Z,10.03
2019-04-21T13:00:00.403Z,7.83
2019-04-21T13:02:31.603Z,8.10
2019-04-21T13:05:02.063Z,7.20
2019-04-21T13:07:33.476Z,8.73
2019-04-21T13:10:04.349Z,8.10
2019-04-21T13:12:35.277Z,8.97
2019-04-21T13:15:06.511Z,9.80
2019-04-21T13:17:37.343Z,11.33
2019-04-21T13:20:09.536Z,7.20
2019-04-21T13:22:39.804Z,7.00
2019-04-21T13:25:09.848Z,7.27
2019-04-21T13:27:40.873Z,8.67
2019-04-21T13:30:12.627Z,7.10
2019-04-21T13:32:43.273Z,6.90
2019-04-21T13:35:13.125Z,8.50
2019-04-21T13:37:43.628Z,6.80
2019-04-21T13:40:48.674Z,8.23
2019-04-21T13:43:08.128Z,8.03
2019-04-21T13:45:37.374Z,9.50
2019-04-21T13:48:08.405Z,6.83
2019-04-21T13:50:39.554Z,6.53
2019-04-21T13:53:09.547Z,7.43
2019-04-21T13:55:40.772Z,7.60
2019-04-21T13:58:10.879Z,10.23
2019-04-21T14:00:42.227Z,6.97
2019-04-21T14:03:12.489Z,7.97
2019-04-21T14:05:42.585Z,7.00
2019-04-21T14:08:13.470Z,6.93
2019-04-21T14:10:43.943Z,6.20
2019-04-21T14:13:16.356Z,6.47
2019-04-21T14:15:48.222Z,10.23
2019-04-21T14:18:18.580Z,6.33
2019-04-21T14:20:49.255Z,6.30
2019-04-21T14:23:28.608Z,7.93
2019-04-21T14:25:50.853Z,7.27
2019-04-21T14:28:21.960Z,5.13
2019-04-21T14:30:54.331Z,6.17
2019-04-21T14:33:25.642Z,7.30
2019-04-21T14:35:56.838Z,7.20
2019-04-21T14:38:28.920Z,6.17
2019-04-21T14:40:59.981Z,8.40
2019-04-21T14:43:30.123Z,6.80
2019-04-21T14:46:22.446Z,6.50
2019-04-21T14:49:27.088Z,7.27
2019-04-21T14:52:23.136Z,7.60
2019-04-21T14:55:04.819Z,5.37
2019-04-21T14:57:34.935Z,7.80
2019-04-21T15:00:07.153Z,6.00
2019-04-21T15:02:39.958Z,6.67
2019-04-21T15:05:11.473Z,5.93
2019-04-21T15:07:41.503Z,6.03
2019-04-21T15:10:17.034Z,6.63
2019-04-21T15:12:43.951Z,7.17
2019-04-21T15:15:13.982Z,6.50
2019-04-21T15:17:44.189Z,5.77
2019-04-21T15:20:17.315Z,8.87
2019-04-21T15:22:48.175Z,14.60
2019-04-21T15:25:18.403Z,7.97
2019-04-21T15:27:48.796Z,10.60
2019-04-21T15:30:20.759Z,7.63
2019-04-21T15:32:52.757Z,11.50
2019-04-21T15:35:22.590Z,7.43
2019-04-21T15:37:53.746Z,6.57
2019-04-21T15:40:36.637Z,9.97
2019-04-21T15:42:56.724Z,9.67
2019-04-21T15:45:26.825Z,6.13
2019-04-21T15:47:58.088Z,9.03
2019-04-21T15:50:28.213Z,8.77
2019-04-21T15:53:01.389Z,8.03
2019-04-21T15:55:53.255Z,6.13
2019-04-21T15:58:38.884Z,11.23
2019-04-21T16:01:40.798Z,7.73
2019-04-21T16:04:10.957Z,8.90
2019-04-21T16:06:41.594Z,8.07
2019-04-21T16:09:16.143Z,9.70
2019-04-21T16:11:44.050Z,7.03
2019-04-21T16:14:14.516Z,8.77
2019-04-21T16:16:45.391Z,11.37
2019-04-21T16:19:16.464Z,6.00
2019-04-21T16:21:46.667Z,6.67
2019-04-21T16:24:18.396Z,5.13
2019-04-21T16:26:48.849Z,6.43
2019-04-21T16:29:18.882Z,9.20
2019-04-21T16:31:49.103Z,11.80
2019-04-21T16:34:19.922Z,15.07
2019-04-21T16:36:50.030Z,11.67
2019-04-21T16:39:21.306Z,10.63
2019-04-21T16:41:52.066Z,14.00
2019-04-21T16:44:23.095Z,7.93
2019-04-21T16:46:53.772Z,14.03
2019-04-21T16:49:23.734Z,16.70
2019-04-21T16:52:12.141Z,14.20
2019-04-21T16:54:44.135Z,12.20
2019-04-21T16:57:21.643Z,14.53
2019-04-21T16:59:54.859Z,9.50
2019-04-21T17:02:24.988Z,10.70
2019-04-21T17:04:56.188Z,13.40
2019-04-21T17:07:28.207Z,10.03
2019-04-21T17:09:58.924Z,10.90
2019-04-21T17:12:30.912Z,11.10
2019-04-21T17:15:21.537Z,15.03
2019-04-21T17:17:55.937Z,15.73
2019-04-21T17:20:19.231Z,12.97
2019-04-21T17:22:39.573Z,20.93
2019-04-21T17:25:10.557Z,10.07
2019-04-21T17:27:40.766Z,8.97
2019-04-21T17:30:10.825Z,10.27
2019-04-21T17:32:45.922Z,12.77
2019-04-21T17:35:12.390Z,18.73
2019-04-21T17:37:42.465Z,11.40
2019-04-21T17:40:13.552Z,19.10
2019-04-21T17:42:50.710Z,13.77
2019-04-21T17:45:15.702Z,13.10
2019-04-21T17:47:54.222Z,18.47
2019-04-21T17:50:38.819Z,21.10
2019-04-21T17:53:13.026Z,12.07
2019-04-21T17:55:46.679Z,14.27
2019-04-21T17:58:27.865Z,16.70
2019-04-21T18:03:46.310Z,15.37
2019-04-21T18:06:07.495Z,10.90
2019-04-21T18:08:46.475Z,13.77
2019-04-21T18:11:06.227Z,24.77
2019-04-21T18:13:30.554Z,21.20
2019-04-21T18:16:10.733Z,17.83
2019-04-21T18:18:32.973Z,13.27
2019-04-21T18:21:09.314Z,9.47
2019-04-21T18:23:54.860Z,11.97
2019-04-21T18:26:28.813Z,14.03
2019-04-21T18:28:53.225Z,15.57
2019-04-21T18:31:26.993Z,18.10
2019-04-21T18:34:19.118Z,23.07
2019-04-21T18:36:55.501Z,25.33
2019-04-21T18:39:52.657Z,43.13
2019-04-21T18:42:37.513Z,39.60
2019-04-21T18:47:59.547Z,30.80
2019-04-21T18:50:45.324Z,29.77
2019-04-21T18:53:31.430Z,24.57
2019-04-21T18:55:49.607Z,26.00
2019-04-21T18:58:18.134Z,24.27
2019-04-21T19:00:48.772Z,23.33
2019-04-21T19:03:27.286Z,27.93
2019-04-21T19:05:59.446Z,25.47
2019-04-21T19:08:51.216Z,23.20
2019-04-21T19:11:14.869Z,26.20
2019-04-21T19:17:11.005Z,25.03
2019-04-21T19:21:32.868Z,36.30
2019-04-21T19:24:18.189Z,20.70
2019-04-21T19:29:20.023Z,20.77
2019-04-21T19:31:53.082Z,23.00
2019-04-21T19:34:07.753Z,20.93
2019-04-21T19:36:32.684Z,26.27
2019-04-21T19:39:14.993Z,19.47
2019-04-21T19:41:52.951Z,18.67
2019-04-21T19:44:32.352Z,17.17
2019-04-21T19:47:02.981Z,19.40
2019-04-21T19:49:39.935Z,18.80
2019-04-21T19:51:56.217Z,17.97
2019-04-21T19:54:28.052Z,18.67
2019-04-21T19:56:51.451Z,17.83
2019-04-21T19:59:30.704Z,20.60
2019-04-21T20:01:54.040Z,16.53
2019-04-21T20:04:31.802Z,15.13
2019-04-21T20:07:02.944Z,18.33
2019-04-21T20:09:39.618Z,15.60
2019-04-21T20:12:23.850Z,17.73
2019-04-21T20:14:55.022Z,16.03
2019-04-21T20:17:16.432Z,17.40
2019-04-21T20:19:34.235Z,13.60
2019-04-21T20:22:05.264Z,16.77
2019-04-21T20:24:37.814Z,17.57
2019-04-21T20:27:15.865Z,15.07
2019-04-21T20:29:57.555Z,14.53
2019-04-21T20:32:45.624Z,12.33
2019-04-21T20:35:01.010Z,14.60
2019-04-21T20:37:32.141Z,16.30
2019-04-21T20:39:50.274Z,16.23
2019-04-21T20:42:28.024Z,13.17
2019-04-21T20:45:22.120Z,15.40
2019-04-21T20:47:30.521Z,10.67
2019-04-21T20:50:03.000Z,10.67
2019-04-21T20:52:50.930Z,14.47
2019-04-21T20:55:14.076Z,13.67
2019-04-21T20:57:46.482Z,12.53
2019-04-21T21:00:24.627Z,10.70
2019-04-21T21:03:07.018Z,12.83
2019-04-21T21:05:23.342Z,10.63
2019-04-21T21:08:08.631Z,13.23
2019-04-21T21:10:29.735Z,10.53
2019-04-21T21:13:12.554Z,13.60
2019-04-21T21:15:29.223Z,10.67
2019-04-21T21:18:22.784Z,9.97
2019-04-21T21:20:35.473Z,11.87
2019-04-21T21:23:02.873Z,9.90
2019-04-21T21:25:44.671Z,9.43
2019-04-21T21:28:06.720Z,14.13
2019-04-21T21:30:39.905Z,10.10
2019-04-21T21:33:17.200Z,11.17
2019-04-21T21:35:42.457Z,10.77
2019-04-21T21:38:23.651Z,10.77
2019-04-21T21:40:48.052Z,9.53
2019-04-21T21:43:11.019Z,12.97
2019-04-21T21:45:42.345Z,13.77
2019-04-21T21:48:26.377Z,11.37
2019-04-21T21:50:51.253Z,11.07
2019-04-21T21:53:16.385Z,10.53
2019-04-21T21:55:46.867Z,8.37
2019-04-21T21:58:25.075Z,9.60
2019-04-21T22:00:55.399Z,10.43
2019-04-21T22:03:29.409Z,9.23
2019-04-21T22:05:58.339Z,8.83
2019-04-21T22:08:24.790Z,10.23
2019-04-21T22:10:55.073Z,10.03
2019-04-21T22:13:32.754Z,10.23
2019-04-21T22:16:06.102Z,11.30
2019-04-21T22:18:45.219Z,9.80
2019-04-21T22:21:13.927Z,10.27
2019-04-21T22:23:39.852Z,9.03
2019-04-21T22:26:03.190Z,8.93
2019-04-21T22:28:33.832Z,8.87
2019-04-21T22:31:05.613Z,8.33
2019-04-21T22:33:44.313Z,11.40
2019-04-21T22:36:20.984Z,10.00
2019-04-21T22:38:52.200Z,9.67
2019-04-21T22:41:22.183Z,9.30
2019-04-21T22:43:46.112Z,10.10
2019-04-21T22:46:15.377Z,7.53
2019-04-21T22:48:52.167Z,9.10
2019-04-21T22:51:25.166Z,11.00
2019-04-21T22:53:51.350Z,8.00
2019-04-21T22:56:26.272Z,10.43
2019-04-21T22:58:52.810Z,7.60
2019-04-21T23:01:28.582Z,9.23
2019-04-21T23:04:00.458Z,8.57
2019-04-21T23:06:30.896Z,9.60
2019-04-21T23:08:59.136Z,8.63
2019-04-21T23:11:35.876Z,8.93
2019-04-21T23:14:06.013Z,9.03
2019-04-21T23:16:36.282Z,8.57
2019-04-21T23:19:22.838Z,7.90
2019-04-21T23:21:53.885Z,9.67
2019-04-21T23:24:31.790Z,9.60
2019-04-21T23:26:51.712Z,7.53
2019-04-21T23:29:39.224Z,8.43
2019-04-21T23:31:59.385Z,7.47
2019-04-21T23:34:21.964Z,7.83
2019-04-21T23:36:53.067Z,8.30
2019-04-21T23:39:23.618Z,7.40
2019-04-21T23:41:52.873Z,8.10
2019-04-21T23:44:22.004Z,8.23
2019-04-21T23:46:56.732Z,9.57
2019-04-21T23:49:38.401Z,7.33
2019-04-21T23:52:00.859Z,9.83
2019-04-21T23:54:27.268Z,7.37
2019-04-21T23:56:57.977Z,8.00
2019-04-21T23:59:32.471Z,7.60
